createdAt,value
2023-12-12T00:00:06.978Z,19.06
2023-12-12T00:02:33.426Z,19.06
2023-12-12T00:05:00.077Z,19.06
2023-12-12T00:07:26.590Z,19.05
2023-12-12T00:09:53.124Z,19.04
2023-12-12T00:12:19.649Z,19.03
2023-12-12T00:14:46.116Z,19.03
2023-12-12T00:17:12.700Z,19.03
2023-12-12T00:19:43.840Z,19.01
2023-12-12T00:22:10.835Z,19.01
2023-12-12T00:24:37.363Z,18.99
2023-12-12T00:27:04.191Z,18.98
2023-12-12T00:29:31.372Z,18.98
2023-12-12T00:31:57.857Z,18.97
2023-12-12T00:34:24.359Z,18.95
2023-12-12T00:36:50.847Z,18.96
2023-12-12T00:39:17.477Z,18.96
2023-12-12T00:41:43.969Z,18.94
2023-12-12T00:44:11.087Z,18.93
2023-12-12T00:46:37.724Z,18.94
2023-12-12T00:49:04.422Z,18.92
2023-12-12T00:51:31.038Z,18.92
2023-12-12T00:53:57.541Z,18.91
2023-12-12T00:56:24.030Z,18.90
2023-12-12T00:58:50.618Z,18.90
2023-12-12T01:01:17.512Z,18.89
2023-12-12T01:03:44.138Z,18.90
2023-12-12T01:06:25.497Z,18.86
2023-12-12T01:08:53.616Z,18.87
2023-12-12T01:11:20.388Z,18.85
2023-12-12T01:13:49.207Z,18.85
2023-12-12T01:16:15.756Z,18.85
2023-12-12T01:18:42.336Z,18.85
2023-12-12T01:21:08.924Z,18.83
2023-12-12T01:23:54.662Z,18.82
2023-12-12T01:26:23.477Z,18.83
2023-12-12T01:28:51.260Z,18.81
2023-12-12T01:31:18.768Z,18.82
2023-12-12T01:33:45.999Z,18.80
2023-12-12T01:36:12.565Z,18.80
2023-12-12T01:38:39.084Z,18.77
2023-12-12T01:41:05.941Z,18.78
2023-12-12T01:43:33.811Z,18.78
2023-12-12T01:46:01.982Z,18.76
2023-12-12T01:48:29.993Z,18.76
2023-12-12T01:50:57.747Z,18.76
2023-12-12T01:53:47.155Z,18.74
2023-12-12T01:56:15.621Z,18.75
2023-12-12T01:58:45.151Z,18.73
2023-12-12T02:01:12.834Z,18.73
2023-12-12T02:03:43.010Z,18.71
2023-12-12T02:06:12.642Z,18.72
2023-12-12T02:08:39.520Z,18.70
2023-12-12T02:11:06.241Z,18.70
2023-12-12T02:13:32.780Z,18.68
2023-12-12T02:15:59.388Z,18.67
2023-12-12T02:18:26.105Z,18.67
2023-12-12T02:20:52.650Z,18.67
2023-12-12T02:23:19.138Z,18.66
2023-12-12T02:25:45.663Z,18.66
2023-12-12T02:28:13.810Z,18.65
2023-12-12T02:30:40.454Z,18.64
2023-12-12T02:33:07.106Z,18.63
2023-12-12T02:35:33.941Z,18.63
2023-12-12T02:38:00.458Z,18.62
2023-12-12T02:40:26.985Z,18.63
2023-12-12T02:42:53.907Z,18.60
2023-12-12T02:45:20.549Z,18.60
2023-12-12T02:47:47.401Z,18.59
2023-12-12T02:50:14.127Z,18.59
2023-12-12T02:52:40.682Z,18.59
2023-12-12T02:55:07.718Z,18.58
2023-12-12T02:57:34.512Z,18.57
2023-12-12T03:00:01.298Z,18.57
2023-12-12T03:02:27.803Z,18.56
2023-12-12T03:04:55.157Z,18.56
2023-12-12T03:07:21.762Z,18.55
2023-12-12T03:09:50.599Z,18.55
2023-12-12T03:12:17.523Z,18.53
2023-12-12T03:14:44.102Z,18.54
2023-12-12T03:17:10.721Z,18.52
2023-12-12T03:19:37.415Z,18.50
2023-12-12T03:22:04.254Z,18.52
2023-12-12T03:24:30.792Z,18.50
2023-12-12T03:26:57.287Z,18.50
2023-12-12T03:29:23.749Z,18.49
2023-12-12T03:31:50.275Z,18.49
2023-12-12T03:34:17.032Z,18.47
2023-12-12T03:36:44.703Z,18.48
2023-12-12T03:39:11.696Z,18.48
2023-12-12T03:41:39.197Z,18.46
2023-12-12T03:44:05.728Z,18.44
2023-12-12T03:46:32.286Z,18.46
2023-12-12T03:48:59.007Z,18.45
2023-12-12T03:51:25.876Z,18.44
2023-12-12T03:53:52.357Z,18.44
2023-12-12T03:56:18.901Z,18.42
2023-12-12T03:58:46.289Z,18.44
2023-12-12T04:01:13.009Z,18.43
2023-12-12T04:03:40.621Z,18.42
2023-12-12T04:06:08.051Z,18.42
2023-12-12T04:08:34.582Z,18.41
2023-12-12T04:11:01.065Z,18.39
2023-12-12T04:13:27.603Z,18.40
2023-12-12T04:15:54.195Z,18.38
2023-12-12T04:18:20.784Z,18.37
2023-12-12T04:20:47.349Z,18.37
2023-12-12T04:23:13.909Z,18.36
2023-12-12T04:25:40.449Z,18.36
2023-12-12T04:28:08.486Z,18.33
2023-12-12T04:30:35.081Z,18.35
2023-12-12T04:33:01.634Z,18.33
2023-12-12T04:35:28.244Z,18.32
2023-12-12T04:37:54.716Z,18.32
2023-12-12T04:40:21.524Z,18.30
2023-12-12T04:42:48.061Z,18.32
2023-12-12T04:45:14.686Z,18.30
2023-12-12T04:47:41.298Z,18.30
2023-12-12T04:50:08.697Z,18.29
2023-12-12T04:52:35.333Z,18.29
2023-12-12T04:55:01.940Z,18.29
2023-12-12T04:57:28.564Z,18.27
2023-12-12T04:59:55.060Z,18.27
2023-12-12T05:02:21.935Z,18.27
2023-12-12T05:04:48.429Z,18.26
2023-12-12T05:07:16.821Z,18.27
2023-12-12T05:09:43.591Z,18.24
2023-12-12T05:12:10.072Z,18.25
2023-12-12T05:14:36.523Z,18.25
2023-12-12T05:17:10.182Z,18.24
2023-12-12T05:19:37.686Z,18.23
2023-12-12T05:22:04.617Z,18.22
2023-12-12T05:24:31.343Z,18.21
2023-12-12T05:26:57.847Z,18.21
2023-12-12T05:29:24.379Z,18.20
2023-12-12T05:31:50.966Z,18.18
2023-12-12T05:34:17.640Z,18.19
2023-12-12T05:36:44.198Z,18.19
2023-12-12T05:39:11.226Z,18.18
2023-12-12T05:41:38.091Z,18.18
2023-12-12T05:44:06.550Z,18.18
2023-12-12T05:46:33.231Z,18.16
2023-12-12T05:49:00.805Z,18.16
2023-12-12T05:51:27.777Z,18.15
2023-12-12T05:53:55.393Z,18.15
2023-12-12T05:56:22.108Z,18.16
2023-12-12T05:58:48.698Z,18.15
2023-12-12T06:01:18.709Z,18.14
2023-12-12T06:03:46.041Z,18.13
2023-12-12T06:06:12.801Z,18.12
2023-12-12T06:08:39.348Z,18.10
2023-12-12T06:11:07.454Z,18.13
2023-12-12T06:13:34.416Z,18.10
2023-12-12T06:16:01.003Z,18.11
2023-12-12T06:18:27.673Z,18.12
2023-12-12T06:20:54.426Z,18.10
2023-12-12T06:23:20.886Z,18.10
2023-12-12T06:25:48.214Z,18.10
2023-12-12T06:28:14.796Z,18.13
2023-12-12T06:30:41.417Z,18.11
2023-12-12T06:33:08.105Z,18.15
2023-12-12T06:35:35.266Z,18.15
2023-12-12T06:38:05.116Z,18.16
2023-12-12T06:40:31.801Z,18.18
2023-12-12T06:42:58.450Z,18.22
2023-12-12T06:45:24.954Z,18.26
2023-12-12T06:47:51.554Z,18.31
2023-12-12T06:50:18.462Z,18.35
2023-12-12T06:52:45.114Z,18.40
2023-12-12T06:55:11.658Z,18.46
2023-12-12T06:57:39.088Z,18.50
2023-12-12T07:00:08.161Z,18.57
2023-12-12T07:02:34.913Z,18.63
2023-12-12T07:05:01.926Z,18.70
2023-12-12T07:07:28.676Z,18.73
2023-12-12T07:09:59.536Z,18.81
2023-12-12T07:15:12.850Z,18.93
2023-12-12T07:17:39.711Z,19.00
2023-12-12T07:20:06.992Z,19.04
2023-12-12T07:22:33.682Z,19.12
2023-12-12T07:25:01.209Z,19.17
2023-12-12T07:27:27.850Z,19.23
2023-12-12T07:29:54.370Z,19.27
2023-12-12T07:32:20.985Z,19.32
2023-12-12T07:34:47.634Z,19.37
2023-12-12T07:37:14.229Z,19.41
2023-12-12T07:39:40.775Z,19.45
2023-12-12T07:42:07.294Z,19.48
2023-12-12T07:44:33.855Z,19.52
2023-12-12T07:47:03.186Z,19.59
2023-12-12T07:49:30.616Z,19.63
2023-12-12T07:51:57.687Z,19.67
2023-12-12T07:54:24.389Z,19.66
2023-12-12T07:56:50.873Z,19.67
2023-12-12T07:59:18.768Z,19.67
2023-12-12T08:01:46.661Z,19.66
2023-12-12T08:04:13.545Z,19.63
2023-12-12T08:06:40.207Z,19.63
2023-12-12T08:09:08.341Z,19.61
2023-12-12T08:11:34.855Z,19.61
2023-12-12T08:14:01.828Z,19.60
2023-12-12T08:16:28.661Z,19.59
2023-12-12T08:18:55.330Z,19.58
2023-12-12T08:21:21.876Z,19.59
2023-12-12T08:23:49.849Z,19.55
2023-12-12T08:26:16.701Z,19.57
2023-12-12T08:28:43.284Z,19.56
2023-12-12T08:31:10.566Z,19.54
2023-12-12T08:33:37.301Z,19.51
2023-12-12T08:36:05.058Z,19.51
2023-12-12T08:38:31.708Z,19.50
2023-12-12T08:40:58.190Z,19.49
2023-12-12T08:43:25.332Z,19.47
2023-12-12T08:45:53.886Z,19.46
2023-12-12T08:48:20.776Z,19.44
2023-12-12T08:50:49.682Z,19.44
2023-12-12T08:53:16.967Z,19.42
2023-12-12T08:55:43.821Z,19.41
2023-12-12T08:58:12.148Z,19.39
2023-12-12T09:00:39.961Z,19.38
2023-12-12T09:03:06.595Z,19.38
2023-12-12T09:05:33.164Z,19.38
2023-12-12T09:08:00.066Z,19.37
2023-12-12T09:10:26.834Z,19.36
2023-12-12T09:12:53.498Z,19.36
2023-12-12T09:15:20.629Z,19.35
2023-12-12T09:18:00.443Z,19.35
2023-12-12T09:20:33.980Z,19.34
2023-12-12T09:23:00.796Z,19.34
2023-12-12T09:25:27.508Z,19.34
2023-12-12T09:27:54.166Z,19.33
2023-12-12T09:30:22.330Z,19.33
2023-12-12T09:32:49.253Z,19.33
2023-12-12T09:35:17.340Z,19.32
2023-12-12T09:37:43.976Z,19.30
2023-12-12T09:40:13.611Z,19.30
2023-12-12T09:42:41.385Z,19.28
2023-12-12T09:45:15.993Z,19.27
2023-12-12T09:47:43.871Z,19.27
2023-12-12T09:50:11.675Z,19.27
2023-12-12T09:52:38.620Z,19.25
2023-12-12T09:55:06.758Z,19.23
2023-12-12T09:57:34.406Z,19.22
2023-12-12T10:00:01.663Z,19.22
2023-12-12T10:02:34.610Z,19.18
2023-12-12T10:05:04.251Z,19.18
2023-12-12T10:07:32.042Z,19.19
2023-12-12T10:10:00.183Z,19.20
2023-12-12T10:12:29.191Z,19.19
2023-12-12T10:14:57.128Z,19.17
2023-12-12T10:17:26.301Z,19.14
2023-12-12T10:20:05.287Z,19.15
2023-12-12T10:22:33.046Z,19.16
2023-12-12T10:25:15.978Z,19.16
2023-12-12T10:27:43.973Z,19.15
2023-12-12T10:30:14.572Z,19.14
2023-12-12T10:32:41.758Z,19.15
2023-12-12T10:35:08.906Z,19.13
2023-12-12T10:37:35.792Z,19.14
2023-12-12T10:40:12.912Z,19.13
2023-12-12T10:42:41.273Z,19.13
2023-12-12T10:45:14.027Z,19.12
2023-12-12T10:47:42.816Z,19.11
2023-12-12T10:50:16.594Z,19.10
2023-12-12T10:52:45.391Z,19.11
2023-12-12T10:55:14.117Z,19.10
2023-12-12T10:57:43.776Z,19.10
2023-12-12T11:00:18.177Z,19.09
2023-12-12T11:02:47.234Z,19.09
2023-12-12T11:05:15.994Z,19.09
2023-12-12T11:07:47.672Z,19.08
2023-12-12T11:10:16.081Z,19.07
2023-12-12T11:12:56.352Z,19.07
2023-12-12T11:15:24.872Z,19.07
2023-12-12T11:17:52.900Z,19.08
2023-12-12T11:20:20.942Z,19.08
2023-12-12T11:22:49.755Z,19.07
2023-12-12T11:25:22.469Z,19.06
2023-12-12T11:27:51.962Z,19.04
2023-12-12T11:30:20.251Z,19.02
2023-12-12T11:32:48.815Z,19.02
2023-12-12T11:35:33.838Z,18.98
2023-12-12T11:38:04.362Z,18.98
2023-12-12T11:40:32.178Z,18.95
2023-12-12T11:43:21.866Z,18.93
2023-12-12T11:45:48.745Z,18.94
2023-12-12T11:48:16.347Z,18.91
2023-12-12T11:50:43.069Z,18.91
2023-12-12T11:53:10.002Z,18.89
2023-12-12T11:55:43.696Z,18.89
2023-12-12T11:58:10.699Z,18.88
2023-12-12T12:00:39.230Z,18.88
2023-12-12T12:03:06.934Z,18.87
2023-12-12T12:05:33.696Z,18.86
2023-12-12T12:08:02.196Z,18.87
2023-12-12T12:10:29.197Z,18.86
2023-12-12T12:12:57.226Z,18.86
2023-12-12T12:15:24.996Z,18.84
2023-12-12T12:17:52.167Z,18.83
2023-12-12T12:20:19.099Z,18.84
2023-12-12T12:22:45.964Z,18.82
2023-12-12T12:25:13.953Z,18.82
2023-12-12T12:27:52.159Z,18.80
2023-12-12T12:30:19.670Z,18.79
2023-12-12T12:33:08.404Z,18.79
2023-12-12T12:35:35.002Z,18.76
2023-12-12T12:38:01.638Z,18.76
2023-12-12T12:40:46.515Z,18.74
2023-12-12T12:43:18.457Z,18.74
2023-12-12T12:45:48.696Z,18.74
2023-12-12T12:48:19.137Z,18.70
2023-12-12T12:50:49.317Z,18.72
2023-12-12T12:53:15.926Z,18.69
2023-12-12T12:55:44.395Z,18.70
2023-12-12T12:58:12.470Z,18.68
2023-12-12T13:00:40.375Z,18.67
2023-12-12T13:03:08.384Z,18.68
2023-12-12T13:05:34.948Z,18.67
2023-12-12T13:08:01.431Z,18.68
2023-12-12T13:10:39.552Z,18.66
2023-12-12T13:13:14.024Z,18.67
2023-12-12T13:15:41.114Z,18.65
2023-12-12T13:18:07.812Z,18.64
2023-12-12T13:20:34.334Z,18.65
2023-12-12T13:23:01.080Z,18.65
2023-12-12T13:25:27.694Z,18.63
2023-12-12T13:27:54.324Z,18.64
2023-12-12T13:30:22.017Z,18.63
2023-12-12T13:32:48.805Z,18.63
2023-12-12T13:35:26.963Z,18.64
2023-12-12T13:38:01.800Z,18.64
2023-12-12T13:40:28.546Z,18.68
2023-12-12T13:42:55.286Z,18.67
2023-12-12T13:45:21.854Z,18.70
2023-12-12T13:47:48.578Z,18.72
2023-12-12T13:50:15.445Z,18.73
2023-12-12T13:52:42.190Z,18.74
2023-12-12T13:55:09.043Z,18.74
2023-12-12T13:57:35.689Z,18.74
2023-12-12T14:00:03.107Z,18.72
2023-12-12T14:02:33.464Z,18.74
2023-12-12T14:05:03.627Z,18.74
2023-12-12T14:07:31.126Z,18.76
2023-12-12T14:09:57.934Z,18.74
2023-12-12T14:12:24.444Z,18.78
2023-12-12T14:14:50.957Z,18.80
2023-12-12T14:17:17.659Z,18.82
2023-12-12T14:19:44.463Z,18.82
2023-12-12T14:22:13.878Z,18.85
2023-12-12T14:24:41.661Z,18.85
2023-12-12T14:27:08.462Z,18.86
2023-12-12T14:29:35.452Z,18.87
2023-12-12T14:32:02.374Z,18.89
2023-12-12T14:34:29.072Z,18.94
2023-12-12T14:36:55.631Z,18.98
2023-12-12T14:39:22.188Z,19.03
2023-12-12T14:41:48.761Z,19.07
2023-12-12T14:44:15.387Z,19.14
2023-12-12T14:46:42.115Z,19.22
2023-12-12T14:49:08.949Z,19.32
2023-12-12T14:51:35.533Z,19.41
2023-12-12T14:54:04.743Z,19.49
2023-12-12T14:56:33.028Z,19.59
2023-12-12T14:58:59.829Z,19.71
2023-12-12T15:01:26.458Z,19.82
2023-12-12T15:03:53.271Z,19.89
2023-12-12T15:06:20.692Z,20.01
2023-12-12T15:08:47.274Z,20.06
2023-12-12T15:11:13.901Z,20.13
2023-12-12T15:13:41.018Z,20.21
2023-12-12T15:16:11.243Z,20.29
2023-12-12T15:18:38.977Z,20.35
2023-12-12T15:21:07.032Z,20.38
2023-12-12T15:23:34.144Z,20.41
2023-12-12T15:26:00.735Z,20.41
2023-12-12T15:28:28.296Z,20.42
2023-12-12T15:30:57.245Z,20.44
2023-12-12T15:33:25.037Z,20.49
2023-12-12T15:35:51.890Z,20.55
2023-12-12T15:38:18.498Z,20.58
2023-12-12T15:40:45.237Z,20.63
2023-12-12T15:43:12.693Z,20.67
2023-12-12T15:45:39.668Z,20.71
2023-12-12T15:48:06.692Z,20.75
2023-12-12T15:50:33.501Z,20.77
2023-12-12T15:53:00.007Z,20.80
2023-12-12T15:55:26.542Z,20.82
2023-12-12T15:57:53.045Z,20.83
2023-12-12T16:00:19.936Z,20.85
2023-12-12T16:02:46.490Z,20.87
2023-12-12T16:05:13.585Z,20.87
2023-12-12T16:07:40.486Z,20.89
2023-12-12T16:10:11.339Z,20.91
2023-12-12T16:12:38.640Z,20.92
2023-12-12T16:15:06.528Z,20.93
2023-12-12T16:17:34.209Z,20.93
2023-12-12T16:20:05.103Z,20.96
2023-12-12T16:22:33.711Z,20.95
2023-12-12T16:25:00.501Z,20.96
2023-12-12T16:27:27.085Z,20.96
2023-12-12T16:29:53.788Z,20.96
2023-12-12T16:32:20.373Z,20.91
2023-12-12T16:34:48.131Z,20.90
2023-12-12T16:37:15.240Z,20.89
2023-12-12T16:39:43.201Z,20.87
2023-12-12T16:42:15.410Z,20.86
2023-12-12T16:44:43.147Z,20.85
2023-12-12T16:47:11.075Z,20.85
2023-12-12T16:49:38.255Z,20.86
2023-12-12T16:52:05.141Z,20.86
2023-12-12T16:54:34.548Z,20.86
2023-12-12T16:57:01.462Z,20.85
2023-12-12T16:59:28.124Z,20.84
2023-12-12T17:01:57.659Z,20.82
2023-12-12T17:04:29.977Z,20.82
2023-12-12T17:06:56.888Z,20.79
2023-12-12T17:09:23.697Z,20.79
2023-12-12T17:11:50.292Z,20.78
2023-12-12T17:14:17.294Z,20.76
2023-12-12T17:16:44.982Z,20.78
2023-12-12T17:19:12.251Z,20.77
2023-12-12T17:21:39.260Z,20.77
2023-12-12T17:24:06.268Z,20.76
2023-12-12T17:26:32.830Z,20.76
2023-12-12T17:28:59.360Z,20.74
2023-12-12T17:31:26.336Z,20.74
2023-12-12T17:33:53.230Z,20.74
2023-12-12T17:36:19.891Z,20.73
2023-12-12T17:38:47.036Z,20.70
2023-12-12T17:41:17.189Z,20.71
2023-12-12T17:43:45.233Z,20.69
2023-12-12T17:46:12.260Z,20.69
2023-12-12T17:48:40.655Z,20.67
2023-12-12T17:51:07.477Z,20.67
2023-12-12T17:53:35.407Z,20.67
2023-12-12T17:56:02.542Z,20.67
2023-12-12T17:58:29.747Z,20.67
2023-12-12T18:00:56.660Z,20.64
2023-12-12T18:03:23.749Z,20.65
2023-12-12T18:05:52.339Z,20.64
2023-12-12T18:08:19.343Z,20.64
2023-12-12T18:10:46.063Z,20.61
2023-12-12T18:13:12.855Z,20.61
2023-12-12T18:15:39.338Z,20.61
2023-12-12T18:18:10.852Z,20.60
2023-12-12T18:20:38.304Z,20.58
2023-12-12T18:23:05.429Z,20.57
2023-12-12T18:25:32.204Z,20.56
2023-12-12T18:28:03.130Z,20.56
2023-12-12T18:30:30.697Z,20.54
2023-12-12T18:32:59.273Z,20.54
2023-12-12T18:35:26.095Z,20.52
2023-12-12T18:37:52.698Z,20.49
2023-12-12T18:40:19.356Z,20.48
2023-12-12T18:42:46.047Z,20.48
2023-12-12T18:45:12.905Z,20.47
2023-12-12T18:47:39.921Z,20.47
2023-12-12T18:50:07.918Z,20.45
2023-12-12T18:52:34.517Z,20.45
2023-12-12T18:55:01.324Z,20.44
2023-12-12T18:57:28.594Z,20.42
2023-12-12T18:59:55.170Z,20.42
2023-12-12T19:02:22.803Z,20.41
2023-12-12T19:04:49.598Z,20.39
2023-12-12T19:07:16.751Z,20.37
2023-12-12T19:09:43.629Z,20.36
2023-12-12T19:12:10.423Z,20.35
2023-12-12T19:14:36.958Z,20.35
2023-12-12T19:17:03.807Z,20.35
2023-12-12T19:19:33.221Z,20.32
2023-12-12T19:22:01.224Z,20.33
2023-12-12T19:24:28.817Z,20.32
2023-12-12T19:26:55.415Z,20.31
2023-12-12T19:29:23.219Z,20.30
2023-12-12T19:31:49.953Z,20.28
2023-12-12T19:34:16.666Z,20.28
2023-12-12T19:36:47.988Z,20.27
2023-12-12T19:39:15.606Z,20.27
2023-12-12T19:41:44.828Z,20.25
2023-12-12T19:44:12.380Z,20.26
2023-12-12T19:46:38.940Z,20.24
2023-12-12T19:49:05.785Z,20.23
2023-12-12T19:51:32.437Z,20.23
2023-12-12T19:53:59.455Z,20.23
2023-12-12T19:56:25.934Z,20.21
2023-12-12T19:58:52.604Z,20.23
2023-12-12T20:01:19.785Z,20.21
2023-12-12T20:03:47.297Z,20.20
2023-12-12T20:06:14.186Z,20.18
2023-12-12T20:08:40.712Z,20.16
2023-12-12T20:11:07.646Z,20.13
2023-12-12T20:13:34.600Z,20.13
2023-12-12T20:16:01.591Z,20.11
2023-12-12T20:18:30.947Z,20.10
2023-12-12T20:20:57.835Z,20.09
2023-12-12T20:23:24.485Z,20.06
2023-12-12T20:25:51.227Z,20.05
2023-12-12T20:28:18.242Z,20.06
2023-12-12T20:30:44.962Z,20.04
2023-12-12T20:35:38.050Z,20.02
2023-12-12T20:38:05.462Z,20.00
2023-12-12T20:40:32.147Z,20.00
2023-12-12T20:42:59.156Z,20.00
2023-12-12T20:45:26.013Z,19.98
2023-12-12T20:47:52.690Z,19.97
2023-12-12T20:50:19.741Z,19.96
2023-12-12T20:52:46.602Z,19.95
2023-12-12T20:55:13.411Z,19.94
2023-12-12T20:57:40.101Z,19.94
2023-12-12T21:00:07.451Z,19.92
2023-12-12T21:02:34.091Z,19.91
2023-12-12T21:05:00.752Z,19.90
2023-12-12T21:07:27.516Z,19.89
2023-12-12T21:09:54.566Z,19.90
2023-12-12T21:12:22.306Z,19.88
2023-12-12T21:14:48.935Z,19.89
2023-12-12T21:17:15.469Z,19.88
2023-12-12T21:19:43.559Z,19.87
2023-12-12T21:22:10.265Z,19.87
2023-12-12T21:24:36.930Z,19.86
2023-12-12T21:27:04.734Z,19.85
2023-12-12T21:29:33.052Z,19.85
2023-12-12T21:31:59.598Z,19.86
2023-12-12T21:34:26.441Z,19.86
2023-12-12T21:36:52.974Z,19.84
2023-12-12T21:39:20.018Z,19.83
2023-12-12T21:41:46.550Z,19.79
2023-12-12T21:44:13.526Z,19.79
2023-12-12T21:46:41.142Z,19.78
2023-12-12T21:49:08.365Z,19.75
2023-12-12T21:51:35.032Z,19.76
2023-12-12T21:54:01.877Z,19.74
2023-12-12T21:56:28.821Z,19.73
2023-12-12T21:58:58.013Z,19.71
2023-12-12T22:01:25.206Z,19.72
2023-12-12T22:03:51.896Z,19.69
2023-12-12T22:06:18.406Z,19.69
2023-12-12T22:08:44.897Z,19.67
2023-12-12T22:11:17.034Z,19.67
2023-12-12T22:13:44.418Z,19.66
2023-12-12T22:16:20.209Z,19.66
2023-12-12T22:18:46.790Z,19.65
2023-12-12T22:21:13.412Z,19.62
2023-12-12T22:23:39.879Z,19.62
2023-12-12T22:26:06.534Z,19.60
2023-12-12T22:28:33.126Z,19.60
2023-12-12T22:31:00.877Z,19.58
2023-12-12T22:33:27.460Z,19.59
2023-12-12T22:35:53.995Z,19.57
2023-12-12T22:38:20.447Z,19.56
2023-12-12T22:40:47.059Z,19.56
2023-12-12T22:43:13.884Z,19.52
2023-12-12T22:45:40.432Z,19.55
2023-12-12T22:48:07.273Z,19.54
2023-12-12T22:50:37.934Z,19.51
2023-12-12T22:53:05.698Z,19.50
2023-12-12T22:55:32.185Z,19.49
2023-12-12T22:57:58.739Z,19.50
2023-12-12T23:00:32.903Z,19.48
2023-12-12T23:03:00.333Z,19.47
2023-12-12T23:05:26.967Z,19.46
2023-12-12T23:07:54.406Z,19.45
2023-12-12T23:10:21.776Z,19.46
2023-12-12T23:12:48.768Z,19.44
2023-12-12T23:15:15.814Z,19.43
2023-12-12T23:17:42.404Z,19.43
2023-12-12T23:20:09.583Z,19.43
2023-12-12T23:22:36.382Z,19.42
2023-12-12T23:25:03.019Z,19.40
2023-12-12T23:27:31.278Z,19.40
2023-12-12T23:29:58.025Z,19.40
2023-12-12T23:32:24.504Z,19.39
2023-12-12T23:34:51.255Z,19.37
2023-12-12T23:37:20.652Z,19.36
2023-12-12T23:39:47.487Z,19.35
2023-12-12T23:42:13.981Z,19.36
2023-12-12T23:44:40.479Z,19.33
2023-12-12T23:47:06.949Z,19.35
2023-12-12T23:49:33.466Z,19.33
2023-12-12T23:52:00.027Z,19.34
2023-12-12T23:54:26.515Z,19.32
2023-12-12T23:56:53.003Z,19.32
2023-12-12T23:59:19.926Z,19.31
